Time;durP1;ratioP1;P1;durP2;ratioP2;P2;SDS_P1;SDS_P2;PMS_P1;PMS_P2;Temp;Humidity;BMP_temperature;BMP_pressure;BME280_temperature;BME280_humidity;BME280_pressure;Samples;Min_cycle;Max_cycle;Signal;HPM_P1;HPM_P2
2022/08/28 00:00:29;;;;;;;9.13;4.35;;;14.10;99.90;;;;;;5033260;28;20116;-77
2022/08/28 00:02:56;;;;;;;7.43;4.18;;;14.00;99.90;;;;;;5034043;28;20045;-77
2022/08/28 00:05:24;;;;;;;8.57;4.38;;;14.20;99.90;;;;;;5033958;28;20049;-77
2022/08/28 00:07:50;;;;;;;9.88;5.03;;;14.00;99.90;;;;;;5033644;28;20588;-77
2022/08/28 00:10:18;;;;;;;9.10;4.40;;;13.90;99.90;;;;;;5033819;28;20128;-77
2022/08/28 00:12:46;;;;;;;10.43;4.85;;;13.90;99.90;;;;;;5033815;28;20045;-77
2022/08/28 00:15:15;;;;;;;12.63;4.80;;;13.90;99.90;;;;;;5033627;28;20049;-77
2022/08/28 00:17:41;;;;;;;9.60;4.88;;;13.90;99.90;;;;;;5033469;28;20111;-77
2022/08/28 00:20:09;;;;;;;9.63;5.33;;;13.80;99.90;;;;;;5033900;28;20485;-77
2022/08/28 00:22:37;;;;;;;11.27;5.03;;;13.80;99.90;;;;;;5033354;28;20452;-77
2022/08/28 00:25:04;;;;;;;8.00;4.53;;;13.70;99.90;;;;;;5033837;28;20120;-76
2022/08/28 00:30:15;;;;;;;9.75;4.88;;;13.60;99.90;;;;;;5033783;28;20054;-77
2022/08/28 00:32:40;;;;;;;8.20;4.07;;;13.60;99.90;;;;;;5033674;28;20045;-77
2022/08/28 00:35:06;;;;;;;10.53;4.10;;;13.60;99.90;;;;;;5032849;28;20064;-77
2022/08/28 00:37:32;;;;;;;8.70;4.18;;;13.60;99.90;;;;;;5033673;28;20084;-77
2022/08/28 00:39:58;;;;;;;7.27;4.10;;;13.50;99.90;;;;;;5033365;28;20128;-77
2022/08/28 00:42:23;;;;;;;9.47;3.87;;;13.90;99.90;;;;;;5033540;28;20042;-76
2022/08/28 00:44:49;;;;;;;10.33;4.47;;;13.50;99.90;;;;;;5033468;28;20049;-77
2022/08/28 00:47:15;;;;;;;7.38;3.53;;;13.40;99.90;;;;;;5033539;28;20401;-77
2022/08/28 00:49:50;;;;;;;9.33;3.93;;;13.40;99.90;;;;;;5033717;28;20120;-77
2022/08/28 00:52:17;;;;;;;8.82;3.83;;;13.40;99.90;;;;;;5037678;28;20123;-77
2022/08/28 00:54:50;;;;;;;11.63;4.22;;;13.40;99.90;;;;;;5036566;28;20041;-77
2022/08/28 00:57:36;;;;;;;6.95;3.55;;;13.30;99.90;;;;;;5037508;28;20047;-77
2022/08/28 01:00:05;;;;;;;7.60;3.65;;;13.40;99.90;;;;;;5037748;28;20037;-76
2022/08/28 01:02:31;;;;;;;7.53;3.65;;;13.30;99.90;;;;;;5036992;28;20033;-77
2022/08/28 01:04:56;;;;;;;7.93;4.10;;;13.20;99.90;;;;;;5037262;28;20045;-76
2022/08/28 01:07:22;;;;;;;8.60;3.85;;;13.20;99.90;;;;;;5036134;28;20041;-77
2022/08/28 01:09:51;;;;;;;7.22;3.22;;;13.20;99.90;;;;;;5037226;28;20362;-77
2022/08/28 01:12:23;;;;;;;6.93;3.63;;;13.30;99.90;;;;;;5036677;28;20097;-77
2022/08/28 01:14:53;;;;;;;7.63;3.85;;;13.10;99.90;;;;;;5037181;28;20493;-77
2022/08/28 01:17:22;;;;;;;8.70;4.18;;;13.10;99.90;;;;;;5036007;28;20057;-77
2022/08/28 01:19:57;;;;;;;7.50;3.63;;;13.10;99.90;;;;;;5037030;28;20072;-77
2022/08/28 01:22:32;;;;;;;9.00;3.83;;;13.00;99.90;;;;;;5035900;28;20056;-77
2022/08/28 01:25:00;;;;;;;6.38;3.70;;;13.10;99.90;;;;;;5036937;28;20124;-76
2022/08/28 01:27:26;;;;;;;8.90;3.45;;;13.00;99.90;;;;;;5036868;28;20045;-77
2022/08/28 01:29:52;;;;;;;8.70;3.67;;;12.90;99.90;;;;;;5036819;28;20037;-76
2022/08/28 01:32:34;;;;;;;11.13;3.45;;;12.90;99.90;;;;;;5035627;28;20046;-77
2022/08/28 01:35:01;;;;;;;7.55;4.05;;;13.00;99.90;;;;;;5037321;28;20390;-77
2022/08/28 01:37:28;;;;;;;7.85;3.63;;;12.90;99.90;;;;;;5036779;28;20033;-76
2022/08/28 01:39:54;;;;;;;8.00;3.95;;;12.80;99.90;;;;;;5035871;28;20079;-77
2022/08/28 01:42:20;;;;;;;9.07;4.13;;;12.80;99.90;;;;;;5036684;28;20128;-76
2022/08/28 01:44:46;;;;;;;6.67;3.30;;;12.80;99.90;;;;;;5036575;28;20045;-76
2022/08/28 01:47:11;;;;;;;13.20;3.35;;;12.70;99.90;;;;;;5036948;28;20045;-77
2022/08/28 01:49:37;;;;;;;7.45;4.03;;;12.70;99.90;;;;;;5036946;28;20359;-77
2022/08/28 01:52:03;;;;;;;8.52;3.92;;;12.70;99.90;;;;;;5036708;28;20052;-77
2022/08/28 01:54:29;;;;;;;6.83;4.23;;;12.70;99.90;;;;;;5036408;28;20080;-77
2022/08/28 01:56:55;;;;;;;10.32;4.05;;;12.60;99.90;;;;;;5036470;28;20088;-77
2022/08/28 01:59:21;;;;;;;7.32;3.72;;;12.60;99.90;;;;;;5034771;28;20132;-76
2022/08/28 02:01:47;;;;;;;6.85;3.47;;;12.60;99.90;;;;;;5035877;28;20049;-76
2022/08/28 02:04:13;;;;;;;7.80;3.22;;;12.60;99.90;;;;;;5036260;28;20123;-76
2022/08/28 02:06:40;;;;;;;6.20;3.50;;;12.60;99.90;;;;;;5036326;28;20044;-77
2022/08/28 02:09:06;;;;;;;;;;;12.50;99.90;;;;;;5036551;28;20049;-76
2022/08/28 02:11:32;;;;;;;5.20;3.38;;;12.50;99.90;;;;;;5036185;28;19921;-77
2022/08/28 02:13:58;;;;;;;6.97;3.17;;;12.40;99.90;;;;;;5036060;28;20053;-76
2022/08/28 02:16:24;;;;;;;8.68;3.58;;;12.50;99.90;;;;;;5036374;28;20459;-76
2022/08/28 02:18:50;;;;;;;6.95;3.50;;;12.60;99.90;;;;;;5035751;28;20124;-76
2022/08/28 02:21:17;;;;;;;6.85;3.13;;;12.40;99.90;;;;;;5036256;28;20397;-77
2022/08/28 02:23:43;;;;;;;7.90;3.77;;;12.50;99.90;;;;;;5035847;28;20045;-77
2022/08/28 02:26:10;;;;;;;6.82;3.00;;;12.40;99.90;;;;;;5035788;28;20341;-77
2022/08/28 02:28:36;;;;;;;9.70;3.20;;;12.40;99.90;;;;;;5035718;28;20084;-77
2022/08/28 02:31:04;;;;;;;6.73;2.70;;;12.40;99.90;;;;;;5036121;28;20060;-76
2022/08/28 02:33:30;;;;;;;8.45;3.08;;;12.30;99.90;;;;;;5035678;28;20304;-77
2022/08/28 02:35:55;;;;;;;8.20;3.33;;;12.30;99.90;;;;;;5034484;28;20516;-77
2022/08/28 02:38:21;;;;;;;9.32;3.47;;;12.30;99.90;;;;;;5035659;28;20069;-77
2022/08/28 02:40:47;;;;;;;6.47;3.47;;;12.30;99.90;;;;;;5035320;28;20061;-77
2022/08/28 02:43:12;;;;;;;7.65;3.63;;;12.30;99.90;;;;;;5035385;28;20053;-76
2022/08/28 02:45:38;;;;;;;7.95;3.92;;;12.20;99.90;;;;;;5035976;28;20053;-76
2022/08/28 02:48:04;;;;;;;7.15;4.10;;;12.20;99.90;;;;;;5035395;28;20053;-76
2022/08/28 02:50:30;;;;;;;7.13;3.00;;;12.20;99.90;;;;;;5035318;28;20053;-76
2022/08/28 02:52:56;;;;;;;7.43;3.40;;;12.20;99.90;;;;;;5034526;28;20064;-76
2022/08/28 02:55:23;;;;;;;6.28;3.15;;;12.20;99.90;;;;;;5035307;28;20049;-76
2022/08/28 02:57:51;;;;;;;10.77;3.55;;;12.10;99.90;;;;;;5034923;28;20057;-76
2022/08/28 03:00:23;;;;;;;8.50;3.08;;;12.10;99.90;;;;;;5034221;28;20064;-77
2022/08/28 03:02:51;;;;;;;6.47;3.30;;;12.10;99.90;;;;;;5035205;28;20049;-76
2022/08/28 03:05:19;;;;;;;5.85;3.15;;;12.10;99.90;;;;;;5035153;28;20488;-77
2022/08/28 03:07:46;;;;;;;7.68;3.38;;;12.10;99.90;;;;;;5035003;28;20054;-76
2022/08/28 03:10:12;;;;;;;5.32;2.67;;;12.10;99.90;;;;;;5034956;28;20481;-77
2022/08/28 03:12:38;;;;;;;6.83;2.70;;;12.40;99.90;;;;;;5034092;28;20085;-76
2022/08/28 03:15:06;;;;;;;9.57;3.25;;;12.00;99.90;;;;;;5034864;28;20088;-76
2022/08/28 03:17:32;;;;;;;6.07;3.25;;;12.00;99.90;;;;;;5034837;28;20088;-77
2022/08/28 03:19:57;;;;;;;7.03;3.30;;;12.00;99.90;;;;;;5034562;28;20049;-77
2022/08/28 03:25:10;;;;;;;6.22;3.20;;;11.90;99.90;;;;;;5034402;28;20386;-76
2022/08/28 03:27:35;;;;;;;8.38;3.22;;;11.90;99.90;;;;;;5034637;28;20049;-78
2022/08/28 03:30:01;;;;;;;7.15;3.28;;;11.90;99.90;;;;;;5034682;28;20052;-78
2022/08/28 03:32:27;;;;;;;4.95;3.00;;;11.90;99.90;;;;;;5034764;28;20045;-78
2022/08/28 03:34:53;;;;;;;8.88;3.47;;;11.90;99.90;;;;;;5034487;28;20056;-77
2022/08/28 03:37:19;;;;;;;5.13;3.45;;;11.80;99.90;;;;;;5034853;28;20049;-78
2022/08/28 03:39:45;;;;;;;7.85;3.17;;;11.80;99.90;;;;;;5034415;28;20389;-77
2022/08/28 03:42:11;;;;;;;6.10;3.58;;;11.80;99.90;;;;;;5017682;28;20049;-78
2022/08/28 03:44:37;;;;;;;7.97;3.57;;;11.80;99.90;;;;;;5034408;28;20057;-78
2022/08/28 03:47:03;;;;;;;7.72;3.55;;;11.70;99.90;;;;;;5034378;28;20064;-78
2022/08/28 03:49:29;;;;;;;7.07;3.00;;;11.70;99.90;;;;;;5033964;28;20485;-77
2022/08/28 03:51:55;;;;;;;6.43;3.47;;;11.60;99.90;;;;;;5016951;28;20053;-78
2022/08/28 03:54:21;;;;;;;6.15;3.15;;;11.60;99.90;;;;;;5034233;28;20041;-78
2022/08/28 03:56:47;;;;;;;6.03;3.00;;;11.60;99.90;;;;;;5034685;28;20095;-77
2022/08/28 03:59:12;;;;;;;5.28;2.97;;;11.50;99.90;;;;;;5034134;28;20493;-78
2022/08/28 04:01:39;;;;;;;7.47;3.28;;;11.50;99.90;;;;;;5033924;28;20120;-77
2022/08/28 04:04:05;;;;;;;4.35;2.58;;;11.60;99.90;;;;;;5034243;28;20107;-78
2022/08/28 04:06:30;;;;;;;6.43;2.90;;;11.40;99.90;;;;;;5034025;28;20123;-78
2022/08/28 04:08:57;;;;;;;7.47;3.17;;;11.40;99.90;;;;;;5034015;28;20108;-77
2022/08/28 04:11:23;;;;;;;5.70;3.30;;;11.40;99.90;;;;;;5033821;28;20045;-77
2022/08/28 04:13:49;;;;;;;9.70;2.92;;;11.40;99.90;;;;;;5033853;28;20116;-78
2022/08/28 04:16:18;;;;;;;5.75;3.25;;;11.40;99.90;;;;;;5033693;28;20045;-78
2022/08/28 04:18:46;;;;;;;4.65;3.13;;;11.40;99.90;;;;;;5033980;28;20095;-77
2022/08/28 04:21:18;;;;;;;6.88;3.60;;;11.40;99.90;;;;;;5032664;28;20438;-77
2022/08/28 04:23:45;;;;;;;7.70;3.47;;;11.40;99.90;;;;;;5033593;28;20052;-77
2022/08/28 04:26:13;;;;;;;9.88;4.18;;;11.40;99.90;;;;;;5033694;28;20041;-78
2022/08/28 04:28:40;;;;;;;7.97;3.92;;;11.40;99.90;;;;;;5033718;28;20132;-77
2022/08/28 04:31:07;;;;;;;6.40;3.33;;;11.40;99.90;;;;;;5033459;28;20528;-78
2022/08/28 04:33:33;;;;;;;;;;;11.40;99.90;;;;;;5034117;28;20453;-78
2022/08/28 04:36:05;;;;;;;6.40;3.60;;;11.60;99.90;;;;;;5033690;28;19947;-78
2022/08/28 04:38:31;;;;;;;9.00;3.97;;;11.40;99.90;;;;;;5033573;28;20057;-78
2022/08/28 04:40:56;;;;;;;8.00;3.65;;;11.30;99.90;;;;;;5033596;28;20045;-78
2022/08/28 04:43:22;;;;;;;10.03;3.87;;;11.30;99.90;;;;;;5033569;28;20389;-78
2022/08/28 04:45:48;;;;;;;8.93;4.18;;;11.30;99.90;;;;;;5033605;28;20490;-78
2022/08/28 04:48:13;;;;;;;9.00;4.18;;;11.30;99.90;;;;;;5033508;28;20049;-78
2022/08/28 04:50:44;;;;;;;9.93;3.80;;;11.30;99.90;;;;;;5032208;28;20045;-77
2022/08/28 04:53:10;;;;;;;11.63;5.22;;;11.30;99.90;;;;;;5033557;28;20136;-78
2022/08/28 04:55:44;;;;;;;8.68;4.05;;;11.40;99.90;;;;;;5033533;28;20455;-77
2022/08/28 04:58:10;;;;;;;11.50;3.95;;;11.30;99.90;;;;;;5034002;28;20053;-78
2022/08/28 05:00:38;;;;;;;7.47;3.87;;;11.30;99.90;;;;;;5033445;28;20370;-78
2022/08/28 05:03:04;;;;;;;8.68;4.28;;;11.30;99.90;;;;;;5033368;28;20287;-77
2022/08/28 05:05:29;;;;;;;7.38;3.22;;;11.30;99.90;;;;;;5033082;28;20046;-78
2022/08/28 05:07:55;;;;;;;6.43;3.60;;;11.30;99.90;;;;;;5033405;28;20401;-77
2022/08/28 05:10:21;;;;;;;7.40;3.13;;;11.30;99.90;;;;;;5033321;28;20473;-78
2022/08/28 05:12:46;;;;;;;8.82;3.63;;;11.40;99.90;;;;;;5033199;28;20048;-77
2022/08/28 05:15:12;;;;;;;8.43;3.30;;;11.40;99.90;;;;;;5032222;28;20089;-78
2022/08/28 05:17:38;;;;;;;6.53;3.10;;;11.40;99.90;;;;;;5033427;28;20041;-78
2022/08/28 05:20:04;;;;;;;9.23;3.58;;;11.30;99.90;;;;;;5033176;28;20389;-77
2022/08/28 05:22:31;;;;;;;5.32;3.08;;;11.40;99.90;;;;;;5033227;28;20045;-77
2022/08/28 05:24:57;;;;;;;5.68;3.35;;;11.40;99.90;;;;;;5032284;28;20050;-78
2022/08/28 05:27:23;;;;;;;7.90;3.38;;;11.40;99.90;;;;;;5032024;28;20053;-78
2022/08/28 05:29:49;;;;;;;6.78;3.10;;;11.40;99.90;;;;;;5033137;28;20096;-78
2022/08/28 05:32:15;;;;;;;8.77;3.63;;;11.50;99.90;;;;;;5033135;28;20037;-77
2022/08/28 05:34:40;;;;;;;9.45;3.60;;;11.60;99.90;;;;;;5033050;28;20041;-77
2022/08/28 05:37:07;;;;;;;8.32;3.83;;;11.60;99.90;;;;;;5035172;28;20452;-77
2022/08/28 05:39:33;;;;;;;6.22;3.13;;;11.70;99.90;;;;;;5036684;28;20469;-77
2022/08/28 05:41:59;;;;;;;6.87;2.83;;;11.80;99.90;;;;;;5036670;28;20049;-78
2022/08/28 05:44:24;;;;;;;10.05;4.03;;;11.90;99.90;;;;;;5036818;28;20137;-77
2022/08/28 05:46:52;;;;;;;8.20;4.15;;;12.00;99.90;;;;;;5036625;28;20045;-77
2022/08/28 05:49:18;;;;;;;9.98;3.85;;;12.00;99.90;;;;;;5036396;28;20497;-78
2022/08/28 05:51:45;;;;;;;5.53;3.13;;;12.10;99.90;;;;;;5036509;28;20049;-78
2022/08/28 05:54:11;;;;;;;7.90;3.53;;;12.20;99.90;;;;;;5036520;28;20099;-77
2022/08/28 05:56:39;;;;;;;8.02;3.83;;;12.30;99.90;;;;;;5036396;28;20091;-77
2022/08/28 05:59:05;;;;;;;8.43;3.00;;;12.30;99.90;;;;;;5036836;28;20124;-77
2022/08/28 06:01:35;;;;;;;5.75;3.53;;;12.30;99.90;;;;;;5036318;28;20037;-77
2022/08/28 06:04:06;;;;;;;7.68;3.13;;;12.40;99.90;;;;;;5035224;28;20109;-78
2022/08/28 06:06:33;;;;;;;8.30;3.28;;;12.50;99.90;;;;;;5036649;28;20045;-77
2022/08/28 06:09:02;;;;;;;5.97;3.10;;;12.50;99.90;;;;;;5036134;28;20050;-77
2022/08/28 06:11:29;;;;;;;9.98;3.72;;;12.60;99.90;;;;;;5036302;28;20458;-78
2022/08/28 06:13:55;;;;;;;6.35;2.78;;;12.60;99.90;;;;;;5036070;28;20064;-77
2022/08/28 06:16:22;;;;;;;7.68;3.53;;;12.80;99.90;;;;;;5034822;28;20069;-77
2022/08/28 06:18:49;;;;;;;6.82;3.03;;;12.70;99.90;;;;;;5036027;28;20037;-77
2022/08/28 06:21:15;;;;;;;8.85;3.63;;;12.70;99.90;;;;;;5035695;28;20485;-77
2022/08/28 06:23:41;;;;;;;7.07;3.30;;;12.80;99.90;;;;;;5036224;28;20104;-77
2022/08/28 06:26:07;;;;;;;9.68;3.75;;;12.90;99.90;;;;;;5036031;28;20525;-77
2022/08/28 06:28:32;;;;;;;8.57;3.92;;;12.90;99.90;;;;;;5035876;28;20111;-78
2022/08/28 06:31:01;;;;;;;8.47;3.30;;;13.00;99.90;;;;;;5035351;28;20042;-78
2022/08/28 06:33:27;;;;;;;7.53;2.95;;;13.10;99.90;;;;;;5035728;28;20045;-78
2022/08/28 06:35:54;;;;;;;6.73;3.27;;;13.20;99.90;;;;;;5035623;28;20148;-77
2022/08/28 06:38:22;;;;;;;6.35;3.15;;;13.40;99.90;;;;;;5035645;28;20065;-77
2022/08/28 06:40:51;;;;;;;6.53;3.00;;;13.50;99.90;;;;;;5035598;28;20042;-78
2022/08/28 06:43:21;;;;;;;8.05;2.83;;;13.60;99.90;;;;;;5036073;28;20446;-78
2022/08/28 06:45:49;;;;;;;8.55;2.90;;;13.90;99.90;;;;;;5034578;28;20096;-78
2022/08/28 06:48:16;;;;;;;8.55;2.78;;;14.10;99.90;;;;;;5034253;28;20072;-78
2022/08/28 06:50:48;;;;;;;8.85;3.15;;;14.20;99.90;;;;;;5034159;28;20073;-78
2022/08/28 06:53:16;;;;;;;5.78;2.90;;;14.50;99.90;;;;;;5034202;28;20049;-78
2022/08/28 06:55:41;;;;;;;7.47;2.75;;;14.60;99.90;;;;;;5035210;28;20481;-78
2022/08/28 06:58:08;;;;;;;9.30;3.03;;;14.70;99.90;;;;;;5035496;28;20046;-78
2022/08/28 07:00:35;;;;;;;8.57;2.40;;;14.90;99.90;;;;;;5035613;28;20045;-78
2022/08/28 07:03:03;;;;;;;6.65;2.72;;;15.10;99.90;;;;;;5035129;28;20124;-78
2022/08/28 07:05:29;;;;;;;6.60;2.58;;;15.20;99.90;;;;;;5035468;28;20060;-78
2022/08/28 07:07:54;;;;;;;8.40;3.10;;;15.30;99.90;;;;;;5035054;28;20049;-78
2022/08/28 07:10:20;;;;;;;8.18;2.83;;;15.50;99.90;;;;;;5035149;28;20053;-78
2022/08/28 07:12:48;;;;;;;8.17;2.23;;;15.70;99.90;;;;;;5034917;28;20485;-78
2022/08/28 07:15:14;;;;;;;8.10;2.50;;;15.80;99.90;;;;;;5036002;28;20057;-78
2022/08/28 07:17:39;;;;;;;4.93;2.23;;;16.00;99.90;;;;;;5034138;28;20067;-77
2022/08/28 07:20:06;;;;;;;6.93;2.50;;;16.10;99.90;;;;;;5034805;28;20049;-78
2022/08/28 07:22:32;;;;;;;5.28;2.15;;;16.20;99.90;;;;;;5033696;28;20129;-78
2022/08/28 07:24:57;;;;;;;6.68;2.38;;;16.30;99.90;;;;;;5033638;28;20132;-78
2022/08/28 07:27:24;;;;;;;5.87;1.97;;;16.50;99.90;;;;;;5034680;28;20485;-78
2022/08/28 07:29:51;;;;;;;6.07;2.00;;;16.50;99.90;;;;;;5034670;28;20052;-78
2022/08/28 07:32:18;;;;;;;8.02;1.90;;;16.70;99.90;;;;;;5034906;28;20048;-78
2022/08/28 07:34:43;;;;;;;9.63;2.20;;;16.80;99.90;;;;;;5034908;28;20095;-78
2022/08/28 07:37:09;;;;;;;6.40;2.15;;;17.00;99.90;;;;;;5034489;28;20067;-78
2022/08/28 07:39:35;;;;;;;7.05;2.00;;;17.10;99.90;;;;;;5034464;28;20045;-78
2022/08/28 07:42:01;;;;;;;4.67;1.97;;;17.20;99.90;;;;;;5034328;28;20045;-77
2022/08/28 07:47:11;;;;;;;5.35;1.90;;;17.50;99.90;;;;;;5033666;28;20049;-78
2022/08/28 07:49:38;;;;;;;7.63;2.30;;;17.60;99.90;;;;;;5034008;28;20037;-78
2022/08/28 07:52:06;;;;;;;5.88;2.30;;;17.70;99.90;;;;;;5034100;28;20397;-78
2022/08/28 07:54:34;;;;;;;8.13;2.10;;;17.80;99.90;;;;;;5034171;28;20461;-77
2022/08/28 07:57:03;;;;;;;4.47;1.80;;;18.00;99.90;;;;;;5034001;28;20159;-78
2022/08/28 07:59:29;;;;;;;5.82;1.70;;;17.90;99.90;;;;;;5034186;28;20164;-78
2022/08/28 08:01:54;;;;;;;4.47;1.70;;;18.10;99.90;;;;;;5034319;28;20053;-77
2022/08/28 08:04:22;;;;;;;5.90;1.90;;;18.10;99.90;;;;;;5034161;28;20042;-78
2022/08/28 08:06:49;;;;;;;5.25;1.88;;;18.20;99.90;;;;;;5034184;28;20064;-77
2022/08/28 08:09:17;;;;;;;7.35;1.73;;;18.30;99.90;;;;;;5033890;28;20052;-77
2022/08/28 08:11:44;;;;;;;4.90;1.83;;;18.40;99.90;;;;;;5032719;28;20045;-78
2022/08/28 08:14:10;;;;;;;6.10;2.22;;;18.40;99.90;;;;;;5016184;28;20053;-78
2022/08/28 08:16:38;;;;;;;4.00;1.80;;;18.50;99.90;;;;;;5033852;28;20132;-77
2022/08/28 08:19:05;;;;;;;6.82;1.85;;;18.70;99.90;;;;;;5033815;28;20323;-78
2022/08/28 08:21:31;;;;;;;7.13;1.92;;;19.00;99.90;;;;;;5033861;28;20359;-77
2022/08/28 08:23:58;;;;;;;6.47;1.52;;;19.10;99.90;;;;;;5033702;28;20103;-77
2022/08/28 08:26:26;;;;;;;5.15;1.55;;;19.00;99.90;;;;;;5033948;28;20049;-78
2022/08/28 08:28:52;;;;;;;5.35;1.77;;;18.90;99.90;;;;;;5034036;28;20417;-78
2022/08/28 08:31:19;;;;;;;5.20;1.40;;;18.90;99.90;;;;;;5033630;28;20045;-77
2022/08/28 08:33:47;;;;;;;5.93;1.70;;;18.80;99.90;;;;;;5033583;28;20057;-78
2022/08/28 08:36:16;;;;;;;5.63;1.50;;;18.70;99.90;;;;;;5033647;28;20391;-78
2022/08/28 08:38:42;;;;;;;7.30;1.67;;;18.70;99.90;;;;;;5033568;28;20127;-78
2022/08/28 08:41:32;;;;;;;3.72;1.52;;;18.70;99.90;;;;;;5034323;28;20404;-78
2022/08/28 08:44:20;;;;;;;5.32;1.52;;;18.90;99.90;;;;;;5032495;28;20396;-78
2022/08/28 08:46:54;;;;;;;8.80;2.03;;;19.10;99.90;;;;;;5033512;28;20049;-77
2022/08/28 08:49:24;;;;;;;7.35;1.88;;;19.30;99.90;;;;;;5033522;28;20087;-77
2022/08/28 08:51:56;;;;;;;4.25;1.63;;;19.30;99.90;;;;;;5033844;28;20066;-78
2022/08/28 08:54:22;;;;;;;4.85;1.50;;;19.50;99.90;;;;;;5033589;28;20045;-78
2022/08/28 08:56:50;;;;;;;5.07;1.77;;;19.60;99.90;;;;;;5033492;28;20512;-78
2022/08/28 08:59:19;;;;;;;5.38;1.70;;;19.60;99.90;;;;;;5032600;28;20397;-77
2022/08/28 09:02:16;;;;;;;4.10;1.58;;;19.50;99.90;;;;;;5034119;28;20068;-78
2022/08/28 09:04:53;;;;;;;3.78;1.42;;;19.40;99.90;;;;;;5033395;28;20088;-77
2022/08/28 09:07:28;;;;;;;4.38;1.40;;;19.50;99.90;;;;;;5033227;28;20053;-78
2022/08/28 09:09:55;;;;;;;4.75;1.52;;;19.60;99.90;;;;;;5033308;28;20056;-77
2022/08/28 09:12:29;;;;;;;5.45;1.75;;;19.80;99.90;;;;;;5036765;28;20057;-78
2022/08/28 09:15:13;;;;;;;4.68;1.48;;;19.90;99.90;;;;;;5037390;28;20068;-78
2022/08/28 09:17:43;;;;;;;5.10;1.73;;;20.10;99.90;;;;;;5036300;28;20049;-78
2022/08/28 09:20:12;;;;;;;7.28;2.17;;;20.30;99.90;;;;;;5037262;28;20041;-77
2022/08/28 09:22:43;;;;;;;7.38;1.83;;;20.60;99.90;;;;;;5036996;28;20041;-78
2022/08/28 09:25:11;;;;;;;4.68;1.92;;;20.70;99.90;;;;;;5036988;28;20053;-78
2022/08/28 09:27:46;;;;;;;4.63;1.40;;;20.70;99.90;;;;;;5036930;28;20099;-78
2022/08/28 09:30:12;;;;;;;5.65;1.77;;;20.70;99.90;;;;;;5036882;28;20038;-78
2022/08/28 09:32:43;;;;;;;3.83;1.52;;;20.70;99.90;;;;;;5036587;28;20515;-78
2022/08/28 09:35:28;;;;;;;7.22;1.77;;;20.80;99.90;;;;;;5035894;28;20378;-78
2022/08/28 09:37:55;;;;;;;4.35;1.92;;;21.00;99.50;;;;;;5037149;28;20095;-78
2022/08/28 09:40:21;;;;;;;;;;;21.10;99.60;;;;;;5035983;28;20124;-78
2022/08/28 09:46:17;;;;;;;7.85;2.17;;;20.70;98.50;;;;;;5037015;28;20057;-78
2022/08/28 09:48:45;;;;;;;4.05;1.52;;;20.70;98.50;;;;;;5035502;28;20512;-78
2022/08/28 09:51:19;;;;;;;3.78;1.42;;;20.80;98.40;;;;;;5036612;28;20041;-78
2022/08/28 09:53:51;;;;;;;6.35;2.15;;;21.00;97.40;;;;;;5035678;28;20056;-77
2022/08/28 09:56:38;;;;;;;3.88;1.20;;;21.10;97.20;;;;;;5036407;28;20045;-77
2022/08/28 09:59:16;;;;;;;5.13;1.75;;;21.20;97.20;;;;;;5036908;28;20064;-80
2022/08/28 10:01:56;;;;;;;3.40;1.42;;;21.20;96.70;;;;;;5036744;28;20045;-78
2022/08/28 10:04:53;;;;;;;9.20;2.15;;;21.10;97.60;;;;;;5036198;28;20085;-78
2022/08/28 10:07:30;;;;;;;3.85;1.50;;;20.90;97.60;;;;;;5035716;28;20041;-77
2022/08/28 10:10:17;;;;;;;6.20;1.52;;;20.90;98.00;;;;;;5036346;28;20046;-78
2022/08/28 10:12:49;;;;;;;6.55;1.77;;;20.90;98.40;;;;;;5036134;28;20045;-78
2022/08/28 10:15:36;;;;;;;3.92;1.63;;;21.10;98.00;;;;;;5035049;28;20049;-78
2022/08/28 10:18:05;;;;;;;5.63;2.08;;;21.30;98.00;;;;;;5036363;28;20095;-77
2022/08/28 10:21:00;;;;;;;7.40;1.92;;;21.30;97.30;;;;;;5035064;28;20132;-78
2022/08/28 10:23:47;;;;;;;9.48;2.10;;;21.50;97.50;;;;;;5035634;28;20041;-78
2022/08/28 10:26:44;;;;;;;6.90;1.60;;;21.40;97.50;;;;;;5035920;28;20397;-78
2022/08/28 10:29:16;;;;;;;5.60;1.50;;;21.40;97.70;;;;;;5035676;28;20080;-78
2022/08/28 10:32:04;;;;;;;3.83;1.73;;;21.40;96.90;;;;;;5036122;28;20388;-78
2022/08/28 10:34:50;;;;;;;5.28;1.77;;;21.20;95.70;;;;;;5036033;28;20045;-78
2022/08/28 10:37:29;;;;;;;6.72;1.60;;;21.10;96.20;;;;;;5035756;28;20041;-78
2022/08/28 10:40:02;;;;;;;5.78;1.70;;;21.20;96.80;;;;;;5035666;28;20053;-78
2022/08/28 10:42:44;;;;;;;3.53;1.50;;;21.20;96.70;;;;;;5036077;28;20081;-78
2022/08/28 10:45:12;;;;;;;3.47;1.38;;;21.50;96.70;;;;;;5034768;28;20092;-78
2022/08/28 10:47:40;;;;;;;5.25;1.70;;;21.80;97.10;;;;;;5035514;28;20072;-77
2022/08/28 10:50:14;;;;;;;6.75;1.60;;;21.90;96.70;;;;;;5035314;28;20051;-78
2022/08/28 10:52:46;;;;;;;3.85;1.50;;;21.70;94.90;;;;;;5035878;28;20048;-78
2022/08/28 10:55:25;;;;;;;3.85;1.60;;;21.50;95.30;;;;;;5034975;28;20049;-78
2022/08/28 10:58:05;;;;;;;3.92;1.83;;;21.30;94.70;;;;;;5035930;28;20049;-79
2022/08/28 11:00:32;;;;;;;3.50;1.55;;;21.00;94.80;;;;;;5035292;28;20038;-78
2022/08/28 11:03:13;;;;;;;4.63;1.50;;;20.90;96.00;;;;;;5035139;28;20052;-78
2022/08/28 11:05:53;;;;;;;5.18;1.85;;;21.00;95.90;;;;;;5035167;28;20111;-78
2022/08/28 11:08:34;;;;;;;5.07;1.63;;;21.20;96.30;;;;;;5034220;28;20100;-78
2022/08/28 11:11:02;;;;;;;5.32;1.75;;;21.50;96.80;;;;;;5035020;28;20060;-79
2022/08/28 11:13:51;;;;;;;6.63;1.80;;;21.70;96.30;;;;;;5034841;28;20061;-78
2022/08/28 11:16:27;;;;;;;4.57;1.60;;;21.40;95.30;;;;;;5034969;28;20107;-78
2022/08/28 11:19:17;;;;;;;3.50;1.58;;;21.30;95.50;;;;;;5033996;28;20042;-78
2022/08/28 11:22:01;;;;;;;5.38;1.60;;;21.20;95.10;;;;;;5034795;28;20076;-78
2022/08/28 11:24:32;;;;;;;4.18;1.80;;;21.40;94.90;;;;;;5034046;28;20052;-78
2022/08/28 11:27:20;;;;;;;4.63;1.60;;;21.60;94.80;;;;;;5033574;28;20544;-77
2022/08/28 11:30:07;;;;;;;4.15;1.65;;;21.90;94.40;;;;;;5033580;28;20485;-78
2022/08/28 11:32:33;;;;;;;5.95;1.70;;;22.20;94.00;;;;;;5034574;28;20045;-78
2022/08/28 11:35:01;;;;;;;5.50;1.77;;;22.30;93.90;;;;;;5034290;28;20485;-77
2022/08/28 11:37:41;;;;;;;4.35;1.80;;;22.10;94.40;;;;;;5033398;28;20397;-78
2022/08/28 11:40:18;;;;;;;8.00;1.67;;;22.00;94.70;;;;;;5033071;28;20542;-78
2022/08/28 11:42:48;;;;;;;6.60;1.73;;;21.80;94.80;;;;;;5034438;28;20037;-79
2022/08/28 11:45:53;;;;;;;5.10;1.70;;;21.70;94.50;;;;;;5034275;28;20045;-78
2022/08/28 11:48:24;;;;;;;5.25;1.65;;;21.70;94.30;;;;;;5016784;28;20057;-78
2022/08/28 11:51:27;;;;;;;4.10;1.50;;;21.80;94.30;;;;;;5033128;28;20046;-77
2022/08/28 11:54:08;;;;;;;4.57;1.50;;;21.70;94.00;;;;;;5034286;28;20088;-78
2022/08/28 11:56:37;;;;;;;5.43;1.70;;;21.40;94.40;;;;;;5034168;28;20085;-78
2022/08/28 11:59:37;;;;;;;5.30;1.88;;;21.40;95.10;;;;;;5034119;28;20053;-78
2022/08/28 12:02:39;;;;;;;3.42;1.60;;;21.50;95.10;;;;;;5034169;28;20053;-77
2022/08/28 12:05:10;;;;;;;5.53;1.90;;;21.90;94.60;;;;;;5034081;28;20046;-78
2022/08/28 12:07:48;;;;;;;5.82;1.80;;;22.20;94.80;;;;;;5033963;28;20045;-78
2022/08/28 12:10:26;;;;;;;4.95;1.63;;;22.10;94.20;;;;;;5034237;28;20432;-78
2022/08/28 12:13:01;;;;;;;4.38;1.70;;;21.80;93.90;;;;;;5032602;28;20436;-78
2022/08/28 12:15:27;;;;;;;4.10;1.50;;;22.10;94.50;;;;;;5034069;28;20053;-78
2022/08/28 12:18:03;;;;;;;4.10;1.43;;;22.30;94.60;;;;;;5033854;28;20131;-78
2022/08/28 12:20:50;;;;;;;3.22;1.38;;;22.40;92.70;;;;;;5034296;28;20042;-78
2022/08/28 12:23:22;;;;;;;2.77;1.20;;;22.50;91.90;;;;;;5033758;28;20131;-78
2022/08/28 12:25:49;;;;;;;4.65;1.73;;;22.80;91.90;;;;;;5032673;28;20294;-78
2022/08/28 12:28:20;;;;;;;3.97;1.60;;;22.90;92.60;;;;;;5033703;28;20049;-78
2022/08/28 12:31:04;;;;;;;4.40;1.70;;;23.20;92.30;;;;;;5033527;28;20050;-78
2022/08/28 12:33:35;;;;;;;5.47;1.63;;;23.00;92.20;;;;;;5033678;28;20076;-79
2022/08/28 12:36:03;;;;;;;4.53;1.55;;;22.80;92.60;;;;;;5033930;28;20041;-78
2022/08/28 12:38:32;;;;;;;4.07;1.52;;;22.50;93.10;;;;;;5033596;28;20222;-78
2022/08/28 12:40:57;;;;;;;4.55;1.77;;;22.40;93.50;;;;;;5033454;28;20060;-78
2022/08/28 12:43:37;;;;;;;7.27;1.97;;;22.30;93.80;;;;;;5033416;28;20038;-78
2022/08/28 12:46:07;;;;;;;3.85;1.58;;;22.30;93.30;;;;;;5036602;28;20045;-78
2022/08/28 12:48:50;;;;;;;8.98;2.15;;;22.40;93.70;;;;;;5037565;28;20042;-78
2022/08/28 12:51:25;;;;;;;5.70;1.85;;;22.60;93.40;;;;;;5037626;28;20489;-79
2022/08/28 12:53:57;;;;;;;3.55;1.55;;;22.90;92.50;;;;;;5037476;28;20049;-80
2022/08/28 12:56:25;;;;;;;7.05;1.83;;;23.20;91.40;;;;;;5038015;28;20042;-79
2022/08/28 12:58:51;;;;;;;4.72;1.80;;;23.00;91.10;;;;;;5037461;28;20132;-79
2022/08/28 13:01:20;;;;;;;6.05;1.40;;;22.80;91.70;;;;;;5036870;28;20050;-78
2022/08/28 13:03:56;;;;;;;3.85;1.55;;;22.40;92.10;;;;;;5037575;28;20408;-79
2022/08/28 13:06:37;;;;;;;4.93;1.60;;;22.10;92.60;;;;;;5036226;28;20055;-79
2022/08/28 13:09:17;;;;;;;4.43;1.77;;;22.10;92.50;;;;;;5037845;28;20508;-78
2022/08/28 13:11:48;;;;;;;4.32;1.67;;;22.20;91.60;;;;;;5037413;28;20394;-80
2022/08/28 13:14:51;;;;;;;4.07;1.50;;;22.50;92.00;;;;;;5037033;28;20057;-79